Time;durP1;ratioP1;P1;durP2;ratioP2;P2;SDS_P1;SDS_P2;PMS_P1;PMS_P2;Temp;Humidity;BMP_temperature;BMP_pressure;BME280_temperature;BME280_humidity;BME280_pressure;Samples;Min_cycle;Max_cycle;Signal;HPM_P1;HPM_P2
2022/05/12 00:00:14;;;;;;;9.20;5.80;;;;;;;22.08;37.93;100877.83;107660;1283;72229;-93
2022/05/12 00:42:48;;;;;;;9.30;5.20;;;;;;;22.00;38.11;100875.05;107499;1285;73396;-93
2022/05/12 00:53:12;;;;;;;11.10;5.80;;;;;;;21.97;37.98;100873.09;107693;1283;65393;-93
2022/05/12 00:56:12;;;;;;;8.50;5.50;;;;;;;21.99;37.85;100875.55;107739;1283;67212;-91
2022/05/12 01:16:57;;;;;;;8.90;5.20;;;;;;;21.96;37.83;100876.38;107536;1286;73292;-91
2022/05/12 01:55:10;;;;;;;9.20;5.90;;;;;;;21.92;37.84;100897.16;107825;1283;72022;-92
2022/05/12 02:07:18;;;;;;;9.90;5.50;;;;;;;21.90;37.74;100898.02;107627;1284;81793;-91
2022/05/12 02:45:39;;;;;;;7.00;5.40;;;;;;;21.83;36.92;100919.92;107784;1283;66139;31
2022/05/12 03:20:25;;;;;;;12.90;7.00;;;;;;;21.44;36.40;100944.36;107525;1287;66552;-92
2022/05/12 03:29:21;;;;;;;13.10;7.40;;;;;;;20.96;36.78;100946.76;107487;1287;71424;-92
2022/05/12 03:42:15;;;;;;;14.70;7.30;;;;;;;20.25;37.42;100953.61;107827;1285;81776;-91
2022/05/12 03:48:18;;;;;;;16.40;6.60;;;;;;;20.07;37.66;100957.76;107502;1284;66228;31
2022/05/12 04:16:41;;;;;;;12.00;6.90;;;;;;;19.43;38.79;100978.55;107544;1286;71980;-92
2022/05/12 04:22:40;;;;;;;12.50;6.90;;;;;;;19.52;38.90;100984.55;107591;1283;66311;-90
2022/05/12 04:25:44;;;;;;;15.00;7.40;;;;;;;19.54;38.96;100988.14;107663;1283;74138;-91
2022/05/12 04:51:09;;;;;;;26.00;8.70;;;;;;;19.61;39.92;100998.77;107426;1286;66262;31
2022/05/12 04:54:42;;;;;;;18.20;9.00;;;;;;;19.61;39.86;100997.90;107376;1286;66548;-92
2022/05/12 05:04:07;;;;;;;21.20;9.10;;;;;;;19.64;40.03;100998.65;107381;1286;72446;-90
2022/05/12 05:13:25;;;;;;;21.00;9.00;;;;;;;19.68;40.13;101006.52;107576;1284;73354;-92
2022/05/12 05:19:14;;;;;;;23.50;9.40;;;;;;;19.73;40.26;101006.89;107494;1283;71339;-91
2022/05/12 05:22:19;;;;;;;27.90;10.60;;;;;;;19.76;40.12;101004.77;107596;1283;67545;-91
2022/05/12 05:31:27;;;;;;;23.40;11.00;;;;;;;19.84;40.08;101007.70;107714;1285;80249;-92
2022/05/12 05:40:30;;;;;;;19.90;8.50;;;;;;;19.86;40.16;101009.31;107408;1284;68019;-91
2022/05/12 06:03:27;;;;;;;19.40;7.90;;;;;;;20.46;40.27;101016.39;107408;1284;80352;-90
2022/05/12 06:18:18;;;;;;;26.60;6.90;;;;;;;20.61;39.98;101013.11;107650;1285;80245;-91
2022/05/12 06:21:17;;;;;;;22.50;6.20;;;;;;;20.62;39.85;101014.86;107277;1284;72714;-90
2022/05/12 06:33:01;;;;;;;19.60;5.60;;;;;;;20.71;39.60;101010.14;107385;1284;81950;-89
2022/05/12 06:42:31;;;;;;;17.00;6.60;;;;;;;20.91;39.33;101005.59;107461;1283;66850;31
2022/05/12 06:48:46;;;;;;;18.80;6.80;;;;;;;21.02;39.04;101007.69;107521;1284;81855;-89
2022/05/12 07:07:12;;;;;;;20.70;7.40;;;;;;;21.32;38.82;101006.52;107606;1283;70994;31
2022/05/12 07:45:39;;;;;;;20.30;6.30;;;;;;;21.71;37.91;101006.02;107131;1283;66529;31
2022/05/12 08:13:14;;;;;;;;;;;;;;;;;;;;;
2022/05/12 08:16:01;;;;;;;;;;;;;;;22.13;37.47;101001.20;107477;1284;71619;-88
2022/05/12 08:18:49;;;;;;;7.80;3.80;;;;;;;22.13;37.29;101001.40;107326;1286;65729;-89
2022/05/12 08:27:06;;;;;;;22.80;5.30;;;;;;;22.24;37.00;101006.20;107621;1284;82600;-91
2022/05/12 08:30:17;;;;;;;18.50;5.10;;;;;;;22.27;37.03;101001.20;103164;1283;5593300;-91
2022/05/12 08:43:37;;;;;;;11.70;4.60;;;;;;;22.31;37.03;100993.05;107405;1285;81820;-92
2022/05/12 09:00:36;;;;;;;14.40;7.00;;;;;;;22.41;37.18;100989.84;107621;1285;80620;-93
2022/05/12 09:06:50;;;;;;;21.50;9.80;;;;;;;22.43;37.32;100991.81;107599;1284;67050;-93
2022/05/12 09:19:16;;;;;;;11.40;6.20;;;;;;;22.57;37.45;100981.02;107186;1283;73507;-91
2022/05/12 09:34:15;;;;;;;15.30;5.60;;;;;;;22.75;36.55;100978.54;107579;1284;71864;-92
2022/05/12 09:56:57;;;;;;;;;;;;;;;;;;;;;
2022/05/12 10:26:16;;;;;;;9.60;4.50;;;;;;;23.03;35.84;100924.49;107437;1283;68156;31
2022/05/12 10:56:16;;;;;;;8.90;4.90;;;;;;;23.17;34.67;100890.08;107424;1283;171238;-89
2022/05/12 11:02:30;;;;;;;17.50;7.80;;;;;;;23.13;34.43;100886.95;107396;1284;66748;-91
2022/05/12 11:05:42;;;;;;;12.80;6.70;;;;;;;23.14;34.37;100883.05;107569;1286;73602;-89
2022/05/12 11:11:22;;;;;;;9.10;5.60;;;;;;;23.32;34.18;100880.94;107688;1283;73528;-90
2022/05/12 11:23:03;;;;;;;12.30;4.20;;;;;;;23.41;33.77;100875.03;107550;1284;195611;-91
2022/05/12 11:32:19;;;;;;;7.50;4.40;;;;;;;23.40;33.43;100865.80;107684;1283;66936;-90
2022/05/12 11:38:11;;;;;;;9.60;3.90;;;;;;;23.41;33.42;100858.70;107683;1283;81896;-90
2022/05/12 11:50:09;;;;;;;15.10;11.00;;;;;;;23.59;33.11;100847.27;107686;1285;74604;-90
2022/05/12 11:56:07;;;;;;;11.50;6.20;;;;;;;23.65;33.03;100847.77;107682;1283;73986;-88
2022/05/12 12:02:01;;;;;;;8.70;4.80;;;;;;;23.70;32.82;100836.44;107880;1283;66291;-88
2022/05/12 12:05:01;;;;;;;10.20;4.60;;;;;;;23.67;32.91;100837.11;107789;1283;74435;-90
2022/05/12 12:08:05;;;;;;;9.90;5.80;;;;;;;23.69;32.77;100838.29;107725;1283;81728;-90
2022/05/12 12:11:10;;;;;;;5.70;4.60;;;;;;;23.72;32.65;100831.94;107777;1283;72135;-90
2022/05/12 12:14:00;;;;;;;8.70;4.70;;;;;;;23.69;32.57;100829.66;107570;1284;66445;-88
2022/05/12 12:16:28;;;;;;;10.50;4.20;;;;;;;23.70;32.62;100828.02;107324;1286;66771;-88
2022/05/12 12:21:37;;;;;;;8.00;3.80;;;;;;;23.74;32.55;100828.19;107587;1287;82394;-86
2022/05/12 12:27:30;;;;;;;7.20;3.60;;;;;;;23.72;32.53;100815.98;107676;1285;66763;-89
2022/05/12 12:32:37;;;;;;;6.30;3.20;;;;;;;23.78;32.40;100806.38;107506;1287;75125;-89
2022/05/12 12:35:12;;;;;;;5.40;3.30;;;;;;;23.79;32.35;100803.70;107206;1288;66879;-89
2022/05/12 12:37:43;;;;;;;10.60;3.60;;;;;;;23.82;32.21;100801.64;107367;1287;66113;-89
2022/05/12 12:40:30;;;;;;;7.10;3.80;;;;;;;23.82;32.08;100797.11;107488;1287;67195;-89
2022/05/12 12:43:16;;;;;;;11.50;3.60;;;;;;;23.84;32.00;100799.86;107518;1287;66768;-93
2022/05/12 12:48:33;;;;;;;6.20;3.00;;;;;;;23.84;32.05;100790.87;107613;1284;74923;-88
2022/05/12 12:50:58;;;;;;;11.00;4.70;;;;;;;23.83;31.95;100782.20;107395;1286;66216;-88
2022/05/12 12:56:31;;;;;;;12.60;6.50;;;;;;;23.79;31.96;100786.80;107595;1286;67341;-88
2022/05/12 12:59:17;;;;;;;14.70;7.50;;;;;;;23.77;32.16;100785.42;107508;1286;66814;-88
2022/05/12 13:01:59;;;;;;;9.30;4.70;;;;;;;23.76;32.32;100774.59;107395;1287;72567;-88
2022/05/12 13:04:33;;;;;;;11.00;5.70;;;;;;;23.76;32.38;100773.61;107319;1286;66886;-89
2022/05/12 13:07:07;;;;;;;9.50;5.10;;;;;;;23.78;32.49;100772.73;107349;1287;66139;-89
2022/05/12 13:09:38;;;;;;;10.40;4.60;;;;;;;23.77;32.13;100763.58;107361;1286;66777;-88
2022/05/12 13:12:19;;;;;;;24.20;16.60;;;;;;;23.75;32.13;100766.27;107310;1286;75521;-89
2022/05/12 13:14:46;;;;;;;20.40;8.60;;;;;;;23.76;32.18;100764.41;107519;1285;73745;-88
2022/05/12 13:17:22;;;;;;;7.70;4.50;;;;;;;23.74;32.10;100761.65;107338;1287;66762;-88
2022/05/12 13:19:47;;;;;;;10.50;5.10;;;;;;;23.77;31.90;100760.82;107504;1286;66859;-88
2022/05/12 13:22:25;;;;;;;11.10;3.90;;;;;;;23.76;31.93;100761.55;107500;1286;66742;-88
2022/05/12 13:24:54;;;;;;;6.60;3.00;;;;;;;23.76;31.68;100759.59;107411;1286;66815;-93
2022/05/12 13:27:23;;;;;;;8.60;2.80;;;;;;;23.75;31.57;100756.20;107504;1286;73496;-88
2022/05/12 13:29:49;;;;;;;4.50;2.80;;;;;;;23.77;31.47;100759.13;107392;1287;73235;-88
2022/05/12 13:32:52;;;;;;;7.80;2.80;;;;;;;23.77;31.38;100759.16;107428;1286;66907;-88
2022/05/12 13:35:26;;;;;;;4.00;2.50;;;;;;;23.78;31.29;100758.14;107508;1285;66163;-88
2022/05/12 13:38:15;;;;;;;5.30;2.90;;;;;;;23.80;31.38;100749.91;107374;1287;73730;-88
2022/05/12 13:40:49;;;;;;;5.10;3.00;;;;;;;23.83;31.20;100759.13;107333;1286;73853;-88
2022/05/12 13:43:39;;;;;;;4.40;3.20;;;;;;;23.82;31.24;100760.64;107363;1286;66910;-88
2022/05/12 13:46:17;;;;;;;8.00;3.80;;;;;;;23.86;31.31;100748.88;107556;1286;66700;-89
2022/05/12 13:48:58;;;;;;;7.70;3.10;;;;;;;23.86;31.27;100750.52;107564;1285;66186;-92
2022/05/12 13:51:56;;;;;;;7.00;3.00;;;;;;;23.89;31.12;100750.14;107319;1285;75814;-88
2022/05/12 13:57:48;;;;;;;7.00;3.40;;;;;;;23.93;30.68;100736.03;107717;1286;73538;-88
2022/05/12 14:00:24;;;;;;;6.50;3.50;;;;;;;24.00;30.72;100732.30;107684;1286;66861;-87
2022/05/12 14:02:54;;;;;;;5.10;3.10;;;;;;;24.04;30.48;100731.50;107515;1286;66759;-87
2022/05/12 14:05:26;;;;;;;8.40;3.50;;;;;;;24.06;30.42;100728.39;107427;1286;66797;-88
2022/05/12 14:08:13;;;;;;;5.30;3.70;;;;;;;24.11;30.43;100738.67;107412;1287;73754;-87
2022/05/12 14:10:49;;;;;;;12.40;4.50;;;;;;;24.14;30.31;100735.21;107541;1285;72975;-87
2022/05/12 14:19:14;;;;;;;11.80;3.50;;;;;;;24.15;30.39;100727.73;107322;1286;66921;-88
2022/05/12 14:21:55;;;;;;;6.40;3.20;;;;;;;24.15;30.21;100723.78;107412;1287;72870;-92
2022/05/12 14:24:21;;;;;;;;;;;;;;;24.20;30.38;100720.71;107202;1287;66152;-87
2022/05/12 14:26:47;;;;;;;7.90;2.90;;;;;;;24.21;30.50;100723.11;107454;1287;66058;-87
2022/05/12 14:29:13;;;;;;;8.30;2.90;;;;;;;24.21;30.34;100720.59;107519;1286;66170;-87
2022/05/12 14:31:39;;;;;;;5.90;3.00;;;;;;;24.21;30.29;100716.41;107447;1286;67089;-88
2022/05/12 14:34:06;;;;;;;7.40;3.40;;;;;;;24.25;30.08;100711.61;107401;1287;66241;-88
2022/05/12 14:36:41;;;;;;;7.90;3.10;;;;;;;24.28;29.90;100710.10;107468;1286;66872;-92
2022/05/12 14:39:07;;;;;;;5.40;2.80;;;;;;;24.27;29.87;100706.91;107519;1286;66827;-88
2022/05/12 14:41:32;;;;;;;6.80;2.70;;;;;;;24.28;29.91;100704.48;107412;1287;66660;-87
2022/05/12 14:43:59;;;;;;;7.60;2.70;;;;;;;24.33;29.82;100705.61;107278;1286;66902;-87
2022/05/12 14:46:25;;;;;;;8.80;3.70;;;;;;;24.39;29.69;100705.49;107279;1286;66194;-87
2022/05/12 14:48:51;;;;;;;13.00;6.10;;;;;;;24.42;29.62;100708.36;107607;1286;66797;-88
2022/05/12 14:51:19;;;;;;;10.60;5.90;;;;;;;24.42;29.92;100708.04;107382;1286;66492;-89
2022/05/12 14:54:02;;;;;;;11.20;6.60;;;;;;;24.40;29.99;100709.91;107432;1286;66901;-86
2022/05/12 14:56:28;;;;;;;10.20;6.30;;;;;;;24.40;30.22;100707.65;107417;1287;66857;-88
2022/05/12 14:58:54;;;;;;;9.80;6.40;;;;;;;24.37;30.15;100707.21;107555;1284;66600;-88
2022/05/12 15:01:19;;;;;;;12.50;6.80;;;;;;;24.33;30.24;100707.47;107374;1284;66998;-88
2022/05/12 15:03:46;;;;;;;8.50;6.80;;;;;;;24.26;30.46;100708.00;107355;1286;66950;-88
2022/05/12 15:06:11;;;;;;;10.80;6.60;;;;;;;24.24;30.50;100706.69;107272;1286;66916;-88
2022/05/12 15:08:37;;;;;;;15.10;6.10;;;;;;;24.24;30.74;100707.66;107523;1286;66843;-88
2022/05/12 15:11:03;;;;;;;14.30;6.50;;;;;;;24.24;30.69;100709.61;107353;1285;66822;-88
2022/05/12 15:13:29;;;;;;;9.50;6.50;;;;;;;24.19;30.85;100709.55;107470;1286;66860;-88
2022/05/12 15:15:54;;;;;;;11.50;6.00;;;;;;;24.14;30.94;100708.23;107441;1285;66914;-88
2022/05/12 15:20:53;;;;;;;13.40;6.50;;;;;;;24.12;31.24;100708.13;107709;1283;75684;-88
2022/05/12 15:23:19;;;;;;;9.60;6.40;;;;;;;24.12;31.20;100707.35;107313;1286;66852;-88
2022/05/12 15:25:45;;;;;;;8.20;5.80;;;;;;;24.09;31.22;100710.73;107266;1287;66982;-88
2022/05/12 15:28:11;;;;;;;7.90;6.40;;;;;;;24.02;31.30;100700.72;107316;1287;66262;-88
2022/05/12 15:30:37;;;;;;;8.50;5.80;;;;;;;23.99;31.54;100692.27;107298;1286;66522;-88
2022/05/12 15:33:02;;;;;;;11.00;6.20;;;;;;;24.03;31.68;100699.48;107481;1286;66562;-88
2022/05/12 15:35:28;;;;;;;9.60;6.00;;;;;;;24.02;31.59;100694.86;107362;1286;66743;-88
2022/05/12 15:37:54;;;;;;;7.00;5.70;;;;;;;24.01;31.70;100696.72;107586;1285;66248;-88
2022/05/12 15:40:20;;;;;;;9.20;6.70;;;;;;;23.95;31.72;100693.42;107571;1286;66776;-88
2022/05/12 15:42:46;;;;;;;9.10;6.40;;;;;;;23.93;31.79;100699.95;107371;1286;66996;-88
2022/05/12 15:45:27;;;;;;;10.00;7.00;;;;;;;23.93;31.82;100694.95;107373;1286;66805;-92
2022/05/12 15:47:52;;;;;;;;;;;;;;;23.98;31.87;100695.46;107403;1287;66898;-87
2022/05/12 15:50:29;;;;;;;7.80;6.40;;;;;;;23.94;31.97;100687.34;107295;1287;66968;-88
2022/05/12 15:52:57;;;;;;;9.80;6.50;;;;;;;23.89;31.88;100693.72;106990;1287;67471;-88
2022/05/12 15:55:24;;;;;;;9.40;6.30;;;;;;;23.84;32.13;100703.20;107248;1290;82690;-88
2022/05/12 15:57:50;;;;;;;9.60;6.80;;;;;;;23.86;32.07;100705.40;107107;1290;66850;-88
2022/05/12 16:00:19;;;;;;;9.00;6.10;;;;;;;23.88;32.13;100701.33;107261;1287;66749;-94
2022/05/12 16:02:45;;;;;;;12.50;6.10;;;;;;;23.91;32.20;100699.10;107420;1287;66849;-88
2022/05/12 16:05:11;;;;;;;10.40;6.00;;;;;;;23.85;32.15;100694.52;107170;1288;66912;-88
2022/05/12 16:07:36;;;;;;;11.80;6.30;;;;;;;23.80;32.24;100695.69;107036;1289;66986;-88
2022/05/12 16:10:03;;;;;;;8.70;5.60;;;;;;;23.81;32.38;100694.92;107295;1287;66868;-88
2022/05/12 16:12:43;;;;;;;9.80;5.50;;;;;;;23.84;32.37;100693.45;107384;1287;66142;-88
2022/05/12 16:15:27;;;;;;;8.60;5.90;;;;;;;23.87;32.43;100692.23;107181;1287;66856;-93
2022/05/12 16:17:52;;;;;;;9.40;6.00;;;;;;;23.84;32.22;100689.80;107472;1287;75564;-88
2022/05/12 16:20:18;;;;;;;10.00;5.70;;;;;;;23.78;32.31;100690.02;107466;1287;66939;-89
2022/05/12 16:22:44;;;;;;;10.00;5.80;;;;;;;23.78;32.51;100689.65;107250;1287;66330;-88
2022/05/12 16:25:11;;;;;;;7.60;5.60;;;;;;;23.82;32.44;100691.78;107242;1287;67319;-88
2022/05/12 16:27:39;;;;;;;9.00;5.80;;;;;;;23.84;32.42;100684.40;107395;1287;66772;-89
2022/05/12 16:30:08;;;;;;;7.70;5.60;;;;;;;23.85;32.40;100684.05;107225;1287;66666;-89
2022/05/12 16:32:33;;;;;;;7.90;5.80;;;;;;;23.79;32.48;100683.98;107304;1287;73554;-88
2022/05/12 16:35:00;;;;;;;7.20;5.50;;;;;;;23.79;32.44;100686.20;107414;1287;66782;-88
2022/05/12 16:37:26;;;;;;;9.80;5.10;;;;;;;23.80;32.45;100685.11;107257;1287;66481;-88
2022/05/12 16:39:52;;;;;;;9.70;4.80;;;;;;;23.83;32.49;100686.83;107492;1287;67076;-88
2022/05/12 16:42:20;;;;;;;9.70;5.00;;;;;;;23.83;32.45;100683.44;107466;1287;66683;-88
2022/05/12 16:44:47;;;;;;;7.90;5.00;;;;;;;23.83;32.48;100683.44;107370;1287;66770;-88
2022/05/12 16:47:13;;;;;;;7.40;5.20;;;;;;;23.85;32.48;100691.55;107321;1287;66672;-88
2022/05/12 16:49:39;;;;;;;7.90;5.40;;;;;;;23.82;32.42;100689.87;107255;1286;66640;-88
2022/05/12 16:52:07;;;;;;;6.60;5.10;;;;;;;23.82;32.32;100693.94;107359;1287;66659;-88
2022/05/12 16:54:33;;;;;;;8.90;4.90;;;;;;;23.81;32.31;100700.67;107261;1287;74775;-88
2022/05/12 16:57:01;;;;;;;7.80;4.80;;;;;;;23.76;32.38;100695.78;107378;1287;66596;-93
2022/05/12 16:59:28;;;;;;;8.00;4.90;;;;;;;23.70;32.46;100693.46;107411;1287;66050;-88
2022/05/12 17:01:55;;;;;;;6.90;4.80;;;;;;;23.65;32.61;100690.94;107369;1287;66163;-88
2022/05/12 17:04:21;;;;;;;8.10;4.80;;;;;;;23.61;32.72;100689.67;107397;1287;66926;-88
2022/05/12 17:06:47;;;;;;;8.30;5.40;;;;;;;23.67;32.80;100683.58;107442;1286;66720;-88
2022/05/12 17:09:12;;;;;;;9.10;5.50;;;;;;;23.73;32.72;100690.45;107454;1287;66868;-88
2022/05/12 17:11:38;;;;;;;6.50;5.80;;;;;;;23.74;32.72;100695.22;107245;1287;66864;-88
2022/05/12 17:14:04;;;;;;;9.80;5.40;;;;;;;23.69;32.70;100701.99;107247;1287;66888;-88
2022/05/12 17:16:30;;;;;;;8.60;6.00;;;;;;;23.67;32.81;100692.41;107343;1287;66825;-88
2022/05/12 17:18:56;;;;;;;10.10;5.80;;;;;;;23.71;32.97;100696.33;107444;1287;66844;-88
2022/05/12 17:21:22;;;;;;;7.60;5.70;;;;;;;23.73;33.03;100694.56;107349;1287;66788;-88
2022/05/12 17:26:28;;;;;;;;;;;;;;;23.67;32.94;100699.70;107622;1285;66799;-88
2022/05/12 17:28:55;;;;;;;7.70;5.60;;;;;;;23.64;33.10;100700.55;107318;1287;66874;-88
2022/05/12 17:31:20;;;;;;;6.40;5.70;;;;;;;23.66;33.13;100702.11;107187;1286;67046;-88
2022/05/12 17:33:47;;;;;;;7.30;5.30;;;;;;;23.69;33.10;100702.92;107455;1286;67321;-88
2022/05/12 17:36:13;;;;;;;8.40;5.70;;;;;;;23.68;33.12;100702.16;107491;1285;66219;-88
2022/05/12 17:38:39;;;;;;;8.60;5.60;;;;;;;23.61;33.05;100701.90;107419;1287;66762;-88
2022/05/12 17:41:05;;;;;;;7.40;5.20;;;;;;;23.60;33.13;100705.05;107470;1286;66892;-88
2022/05/12 17:43:30;;;;;;;9.90;5.30;;;;;;;23.64;33.20;100704.60;107414;1287;66957;-88
2022/05/12 17:45:57;;;;;;;12.20;5.30;;;;;;;23.69;33.13;100709.81;107388;1286;66712;-88
2022/05/12 17:48:26;;;;;;;8.50;5.20;;;;;;;23.67;33.12;100709.88;107264;1287;66681;-88
2022/05/12 17:50:56;;;;;;;7.00;5.00;;;;;;;23.61;33.16;100708.58;107476;1287;74679;-92
2022/05/12 17:53:21;;;;;;;7.50;5.20;;;;;;;23.62;33.34;100712.67;107412;1287;82880;-88
2022/05/12 17:55:48;;;;;;;8.10;5.40;;;;;;;23.66;33.28;100704.84;107378;1287;66877;-88
2022/05/12 17:58:17;;;;;;;8.00;4.70;;;;;;;23.70;33.20;100709.33;107239;1286;66229;-88
2022/05/12 18:00:43;;;;;;;8.80;5.50;;;;;;;23.69;33.23;100709.64;107342;1286;66870;-88
2022/05/12 18:03:09;;;;;;;9.80;5.40;;;;;;;23.61;33.34;100710.17;107142;1286;66825;-88
2022/05/12 18:05:36;;;;;;;8.20;5.10;;;;;;;23.59;33.34;100712.27;107436;1287;66222;-88
2022/05/12 18:08:06;;;;;;;7.20;5.60;;;;;;;23.63;33.36;100713.70;107403;1287;66145;-88
2022/05/12 18:10:35;;;;;;;9.30;5.80;;;;;;;23.69;33.40;100717.71;107531;1285;66815;-88
2022/05/12 18:13:01;;;;;;;9.40;5.10;;;;;;;23.66;33.29;100718.24;107472;1286;66122;-88
2022/05/12 18:15:27;;;;;;;8.20;5.20;;;;;;;23.61;33.40;100721.38;107442;1285;66186;-88
2022/05/12 18:17:53;;;;;;;6.70;5.40;;;;;;;23.59;33.49;100722.27;107284;1287;67112;-89
2022/05/12 18:20:19;;;;;;;7.80;5.50;;;;;;;23.64;33.47;100730.19;107330;1287;67065;-88
2022/05/12 18:22:45;;;;;;;7.60;5.30;;;;;;;23.67;33.48;100733.66;107347;1287;66725;-88
2022/05/12 18:25:11;;;;;;;9.00;5.40;;;;;;;23.67;33.33;100730.16;107360;1287;66778;-88
2022/05/12 18:27:37;;;;;;;11.20;5.50;;;;;;;23.60;33.40;100729.08;107472;1287;66854;-88
2022/05/12 18:30:07;;;;;;;6.90;5.00;;;;;;;23.57;33.36;100730.80;107170;1286;67053;-88
2022/05/12 18:35:45;;;;;;;19.10;14.50;;;;;;;23.65;33.49;100742.96;107450;1287;66758;-88
2022/05/12 18:38:13;;;;;;;16.50;12.10;;;;;;;23.66;33.45;100739.93;107503;1287;74542;-88
2022/05/12 18:40:39;;;;;;;15.30;11.00;;;;;;;23.60;33.49;100738.52;107306;1289;72986;-87
2022/05/12 18:43:06;;;;;;;15.10;10.30;;;;;;;23.55;33.52;100738.88;107092;1287;66117;-88
2022/05/12 18:45:32;;;;;;;12.30;10.00;;;;;;;23.58;33.68;100744.87;107573;1286;67336;-88
2022/05/12 18:47:58;;;;;;;12.70;9.50;;;;;;;23.62;33.61;100748.94;107188;1287;66864;-88
2022/05/12 18:50:23;;;;;;;10.30;8.40;;;;;;;23.63;33.62;100745.95;107156;1289;66862;-88
2022/05/12 18:52:49;;;;;;;13.00;8.40;;;;;;;23.59;33.58;100752.48;107002;1288;67808;-87
2022/05/12 18:55:17;;;;;;;10.40;7.70;;;;;;;23.56;33.63;100757.52;107164;1288;67708;-87
2022/05/12 18:57:43;;;;;;;10.00;7.40;;;;;;;23.58;33.67;100756.11;107227;1288;67714;-87
2022/05/12 19:00:11;;;;;;;11.40;7.50;;;;;;;23.60;33.72;100762.35;107114;1289;67560;-88
2022/05/12 19:02:40;;;;;;;11.40;7.20;;;;;;;23.62;33.62;100762.90;107292;1287;67762;-92
2022/05/12 19:05:06;;;;;;;10.10;6.80;;;;;;;23.56;33.67;100765.63;107357;1288;74524;-88
2022/05/12 19:07:31;;;;;;;9.40;6.80;;;;;;;23.53;33.73;100772.27;107266;1288;67680;-88
2022/05/12 19:09:57;;;;;;;8.80;6.60;;;;;;;23.55;33.78;100774.00;107279;1289;67575;-88
2022/05/12 19:12:27;;;;;;;8.50;6.10;;;;;;;23.61;33.79;100769.40;107379;1286;68000;-87
2022/05/12 19:15:00;;;;;;;9.00;6.60;;;;;;;23.63;33.82;100776.17;107347;1286;67008;-88
2022/05/12 19:20:04;;;;;;;8.20;6.30;;;;;;;23.53;33.65;100779.87;107644;1283;67685;-87
2022/05/12 19:22:31;;;;;;;9.30;6.20;;;;;;;23.54;33.73;100780.68;107385;1286;67767;-88
2022/05/12 19:24:57;;;;;;;9.40;6.10;;;;;;;23.57;33.71;100776.58;107500;1286;66924;-88
2022/05/12 19:27:23;;;;;;;9.00;6.20;;;;;;;23.59;33.82;100776.39;107239;1286;67591;-88
2022/05/12 19:29:48;;;;;;;10.50;6.10;;;;;;;23.58;33.79;100773.17;107215;1286;67003;-88
2022/05/12 19:32:14;;;;;;;9.20;5.80;;;;;;;23.52;33.80;100777.20;107680;1285;67962;-87
2022/05/12 19:34:41;;;;;;;8.60;6.00;;;;;;;23.52;33.79;100774.38;107307;1286;68214;-88
2022/05/12 19:37:07;;;;;;;9.30;6.00;;;;;;;23.55;33.79;100778.07;107287;1286;67647;-88
2022/05/12 19:39:32;;;;;;;9.40;5.80;;;;;;;23.57;33.80;100777.91;107286;1286;66918;-88
2022/05/12 19:41:58;;;;;;;9.90;6.40;;;;;;;23.58;33.72;100779.29;107705;1284;67788;-88
2022/05/12 19:44:38;;;;;;;8.50;5.60;;;;;;;23.58;33.78;100781.64;107212;1286;67624;-92
2022/05/12 19:47:05;;;;;;;10.00;5.90;;;;;;;23.59;33.70;100778.39;107330;1287;67786;-88
2022/05/12 19:49:30;;;;;;;8.40;5.60;;;;;;;23.59;33.67;100779.33;107178;1289;66960;-88
2022/05/12 19:51:56;;;;;;;10.70;5.80;;;;;;;23.57;33.66;100782.67;107099;1289;67049;-88
2022/05/12 19:54:22;;;;;;;10.40;5.60;;;;;;;23.58;33.74;100777.79;107353;1288;67630;-88
2022/05/12 19:56:47;;;;;;;7.60;5.00;;;;;;;23.58;33.73;100778.15;107130;1289;67539;-88
2022/05/12 19:59:13;;;;;;;8.60;5.60;;;;;;;23.54;33.71;100776.12;107208;1289;67710;-88
2022/05/12 20:01:56;;;;;;;7.70;5.50;;;;;;;23.46;33.73;100777.70;107182;1288;83147;-87
2022/05/12 20:04:22;;;;;;;7.40;5.60;;;;;;;23.41;33.87;100776.23;107187;1287;67784;-88
2022/05/12 20:06:48;;;;;;;9.60;5.80;;;;;;;23.39;33.86;100776.24;107280;1287;68157;-87
2022/05/12 20:09:14;;;;;;;7.30;5.30;;;;;;;23.43;33.91;100774.33;107193;1287;67634;-88
2022/05/12 20:11:39;;;;;;;8.40;5.30;;;;;;;23.46;33.89;100775.44;107211;1289;67056;-88
2022/05/12 20:14:05;;;;;;;9.00;5.40;;;;;;;23.49;33.86;100776.39;107471;1287;67724;-88
2022/05/12 20:16:31;;;;;;;6.70;5.30;;;;;;;23.46;33.88;100774.05;107278;1286;67051;-87
2022/05/12 20:18:57;;;;;;;7.50;5.20;;;;;;;23.42;33.80;100769.45;107183;1287;67303;-88
2022/05/12 20:21:22;;;;;;;8.00;5.20;;;;;;;23.43;33.92;100767.34;107419;1287;67567;-88
2022/05/12 20:23:48;;;;;;;7.30;5.40;;;;;;;23.45;33.88;100767.02;107399;1287;67647;-88
2022/05/12 20:28:55;;;;;;;10.10;5.30;;;;;;;23.48;33.71;100765.63;107200;1287;260134;-88
2022/05/12 20:31:21;;;;;;;8.10;5.20;;;;;;;23.43;33.75;100760.58;107296;1289;67659;-89
2022/05/12 20:33:47;;;;;;;7.60;5.30;;;;;;;23.41;33.87;100762.98;107159;1287;66967;-88
2022/05/12 20:36:13;;;;;;;7.30;5.30;;;;;;;23.44;33.86;100765.65;107342;1287;68014;-88
2022/05/12 20:38:38;;;;;;;8.30;5.30;;;;;;;23.46;33.85;100763.06;107232;1289;67552;-88
2022/05/12 20:41:04;;;;;;;10.60;5.20;;;;;;;23.48;33.64;100765.06;107306;1288;66963;-88
2022/05/12 20:43:47;;;;;;;7.40;5.20;;;;;;;23.43;33.63;100760.30;107520;1285;74706;-88
2022/05/12 20:46:13;;;;;;;7.70;5.20;;;;;;;23.39;33.77;100760.73;107347;1287;67727;-87
2022/05/12 20:48:41;;;;;;;8.10;5.20;;;;;;;23.41;33.80;100763.45;107552;1286;67720;-87
2022/05/12 20:51:09;;;;;;;9.50;5.00;;;;;;;23.45;33.76;100765.73;107478;1287;67642;-88
2022/05/12 20:53:35;;;;;;;5.60;4.80;;;;;;;23.47;33.59;100755.77;107528;1286;66976;-88
2022/05/12 20:56:18;;;;;;;9.50;5.10;;;;;;;23.45;33.59;100759.79;107364;1286;67021;-87
2022/05/12 20:58:44;;;;;;;7.50;5.10;;;;;;;23.39;33.64;100756.89;107413;1286;82173;-87
2022/05/12 21:01:10;;;;;;;7.10;5.20;;;;;;;23.43;33.69;100758.77;107380;1286;67606;-87
2022/05/12 21:03:37;;;;;;;7.00;5.00;;;;;;;23.45;33.65;100757.98;107212;1288;67625;-88
2022/05/12 21:06:02;;;;;;;8.90;5.00;;;;;;;23.46;33.63;100755.56;107341;1286;67030;-88
2022/05/12 21:08:29;;;;;;;7.90;4.90;;;;;;;23.45;33.55;100755.42;107264;1286;66904;-88
2022/05/12 21:10:55;;;;;;;7.80;4.90;;;;;;;23.40;33.60;100752.67;107387;1286;68175;-87
2022/05/12 21:13:21;;;;;;;8.40;4.90;;;;;;;23.39;33.80;100746.33;107172;1287;67003;-88
2022/05/12 21:15:47;;;;;;;7.60;4.80;;;;;;;23.45;33.60;100751.73;107146;1287;67822;-87
2022/05/12 21:18:13;;;;;;;7.90;4.70;;;;;;;23.45;33.56;100753.73;107412;1288;67026;-88
2022/05/12 21:20:42;;;;;;;7.20;5.40;;;;;;;23.45;33.54;100753.57;107314;1286;83151;-88
2022/05/12 21:23:08;;;;;;;7.40;5.20;;;;;;;23.40;33.52;100755.19;107261;1286;67690;-87
2022/05/12 21:25:34;;;;;;;9.90;4.80;;;;;;;23.37;33.64;100755.45;107381;1286;67018;-87
2022/05/12 21:28:03;;;;;;;6.40;5.10;;;;;;;23.40;33.63;100755.14;107370;1285;67534;-88
2022/05/12 21:30:30;;;;;;;13.80;5.00;;;;;;;23.43;33.65;100757.23;107484;1286;75061;-87
2022/05/12 21:32:56;;;;;;;9.10;4.90;;;;;;;23.43;33.60;100751.52;107599;1286;73902;-88
2022/05/12 21:35:23;;;;;;;9.80;5.20;;;;;;;23.38;33.51;100749.96;107408;1286;67601;-88
2022/05/12 21:37:50;;;;;;;6.50;5.10;;;;;;;23.34;33.54;100751.32;107301;1287;66877;-87
2022/05/12 21:40:16;;;;;;;7.50;5.20;;;;;;;23.37;33.61;100753.56;107241;1287;67021;-87
2022/05/12 21:42:42;;;;;;;6.90;5.10;;;;;;;23.39;33.63;100748.94;107359;1286;67762;-88
2022/05/12 21:50:37;;;;;;;7.40;4.60;;;;;;;23.32;33.40;100752.73;107609;1285;67568;-88
2022/05/12 21:53:03;;;;;;;6.60;5.20;;;;;;;23.34;33.51;100754.63;107053;1287;67637;-88
2022/05/12 21:55:29;;;;;;;8.20;5.40;;;;;;;23.37;33.46;100753.77;107242;1287;67809;-87
2022/05/12 22:03:38;;;;;;;7.70;5.40;;;;;;;23.30;33.45;100752.63;107449;1286;66901;-88
2022/05/12 22:06:05;;;;;;;7.90;5.80;;;;;;;23.31;33.43;100746.05;107232;1286;68094;-87